createdAt,value
2018-07-28T00:01:00.727Z,17.80
2018-07-28T00:02:32.299Z,18.00
2018-07-28T00:04:03.971Z,19.00
2018-07-28T00:05:35.442Z,18.60
2018-07-28T00:07:07.015Z,18.70
2018-07-28T00:08:38.586Z,17.90
2018-07-28T00:10:10.158Z,19.50
2018-07-28T00:11:41.730Z,20.00
2018-07-28T00:13:13.302Z,20.40
2018-07-28T00:14:44.876Z,18.90
2018-07-28T00:16:16.553Z,19.90
2018-07-28T00:17:48.019Z,18.80
2018-07-28T00:19:19.590Z,20.20
2018-07-28T00:20:51.161Z,19.50
2018-07-28T00:22:22.836Z,19.70
2018-07-28T00:23:54.308Z,19.50
2018-07-28T00:25:25.876Z,20.20
2018-07-28T00:26:57.452Z,19.70
2018-07-28T00:28:29.020Z,20.90
2018-07-28T00:30:00.591Z,19.80
2018-07-28T00:31:32.163Z,20.70
2018-07-28T00:33:03.736Z,19.50
2018-07-28T00:34:35.907Z,19.70
2018-07-28T00:36:06.878Z,20.30
2018-07-28T00:37:38.449Z,20.50
2018-07-28T00:39:10.021Z,19.50
2018-07-28T00:40:41.593Z,19.90
2018-07-28T00:42:13.163Z,18.00
2018-07-28T00:43:44.739Z,19.20
2018-07-28T00:45:16.307Z,19.20
2018-07-28T00:46:47.878Z,20.20
2018-07-28T00:48:19.452Z,20.80
2018-07-28T00:49:51.024Z,22.30
2018-07-28T00:51:22.592Z,21.50
2018-07-28T00:52:54.265Z,21.40
2018-07-28T00:54:25.736Z,23.00
2018-07-28T00:55:57.307Z,21.70
2018-07-28T00:57:28.879Z,21.50
2018-07-28T00:59:00.550Z,23.20
2018-07-28T01:00:32.023Z,21.40
2018-07-28T01:02:03.593Z,22.90
2018-07-28T01:03:35.165Z,23.40
2018-07-28T01:05:06.841Z,21.30
2018-07-28T01:06:38.308Z,22.70
2018-07-28T01:08:09.880Z,23.00
2018-07-28T01:09:41.451Z,21.50
2018-07-28T01:11:13.123Z,21.80
2018-07-28T01:12:44.595Z,20.80
2018-07-28T01:14:16.166Z,21.40
2018-07-28T01:15:48.042Z,21.70
2018-07-28T01:17:19.309Z,21.50
2018-07-28T01:18:50.881Z,20.10
2018-07-28T01:20:22.452Z,22.00
2018-07-28T01:21:54.024Z,22.20
2018-07-28T01:23:25.596Z,22.30
2018-07-28T01:24:57.167Z,21.00
2018-07-28T01:26:28.739Z,21.60
2018-07-28T01:28:00.311Z,22.20
2018-07-28T01:29:31.982Z,23.00
2018-07-28T01:31:03.456Z,21.10
2018-07-28T01:32:35.028Z,21.70
2018-07-28T01:34:06.597Z,20.50
2018-07-28T01:35:38.268Z,23.00
2018-07-28T01:37:09.810Z,22.20
2018-07-28T01:38:41.382Z,23.80
2018-07-28T01:40:12.954Z,23.00
2018-07-28T01:41:44.625Z,23.60
2018-07-28T01:43:16.027Z,23.50
2018-07-28T01:44:47.597Z,24.20
2018-07-28T01:46:19.169Z,24.90
2018-07-28T01:47:50.844Z,26.30
2018-07-28T01:49:22.359Z,24.50
2018-07-28T01:50:53.882Z,24.80
2018-07-28T01:52:25.454Z,25.10
2018-07-28T01:53:57.035Z,25.40
2018-07-28T01:55:28.597Z,25.70
2018-07-28T01:57:00.168Z,25.80
2018-07-28T01:58:31.742Z,23.00
2018-07-28T02:00:03.311Z,24.00
2018-07-28T02:01:34.883Z,22.70
2018-07-28T02:03:06.454Z,24.90
2018-07-28T02:04:38.551Z,25.80
2018-07-28T02:06:09.796Z,25.30
2018-07-28T02:07:41.167Z,25.50
2018-07-28T02:09:12.739Z,24.30
2018-07-28T02:10:44.310Z,24.40
2018-07-28T02:12:15.879Z,24.20
2018-07-28T02:13:47.450Z,24.50
2018-07-28T02:15:19.022Z,25.60
2018-07-28T02:16:50.597Z,24.40
2018-07-28T02:18:22.163Z,23.40
2018-07-28T02:19:53.736Z,23.60
2018-07-28T02:21:25.305Z,23.80
2018-07-28T02:22:56.889Z,24.10
2018-07-28T02:24:28.547Z,22.30
2018-07-28T02:26:00.035Z,22.90
2018-07-28T02:27:31.589Z,23.60
2018-07-28T02:29:03.160Z,24.80
2018-07-28T02:30:34.730Z,22.90
2018-07-28T02:32:06.301Z,23.00
2018-07-28T02:33:37.872Z,22.20
2018-07-28T02:35:09.454Z,21.70
2018-07-28T02:36:41.122Z,22.40
2018-07-28T02:38:12.584Z,24.80
2018-07-28T02:39:44.155Z,22.70
2018-07-28T02:41:15.727Z,21.70
2018-07-28T02:42:47.406Z,24.00
2018-07-28T02:44:18.868Z,23.40
2018-07-28T02:45:50.440Z,24.00
2018-07-28T02:47:22.011Z,24.10
2018-07-28T02:48:53.580Z,24.60
2018-07-28T02:50:25.154Z,22.40
2018-07-28T02:51:56.721Z,21.30
2018-07-28T02:53:28.293Z,21.60
2018-07-28T02:54:59.862Z,21.10
2018-07-28T02:56:31.434Z,21.60
2018-07-28T02:58:03.003Z,21.30
2018-07-28T02:59:34.574Z,23.10
2018-07-28T03:01:06.245Z,22.50
2018-07-28T03:02:37.715Z,21.20
2018-07-28T03:04:09.286Z,21.60
2018-07-28T03:05:40.857Z,22.70
2018-07-28T03:07:12.528Z,20.60
2018-07-28T03:08:43.998Z,20.90
2018-07-28T03:10:15.568Z,22.40
2018-07-28T03:11:47.138Z,22.10
2018-07-28T03:13:18.709Z,22.50
2018-07-28T03:14:50.281Z,22.20
2018-07-28T03:16:21.860Z,21.60
2018-07-28T03:17:53.421Z,23.00
2018-07-28T03:19:25.090Z,22.30
2018-07-28T03:20:56.561Z,22.70
2018-07-28T03:22:28.131Z,23.60
2018-07-28T03:23:59.702Z,23.00
2018-07-28T03:25:31.275Z,23.10
2018-07-28T03:27:02.843Z,23.70
2018-07-28T03:28:34.413Z,23.70
2018-07-28T03:30:05.984Z,25.80
2018-07-28T03:31:37.655Z,25.40
2018-07-28T03:33:09.124Z,23.70
2018-07-28T03:34:40.697Z,24.80
2018-07-28T03:36:12.265Z,23.70
2018-07-28T03:37:44.036Z,26.60
2018-07-28T03:39:15.406Z,28.20
2018-07-28T03:40:46.980Z,25.30
2018-07-28T03:42:18.546Z,26.00
2018-07-28T03:43:50.117Z,27.40
2018-07-28T03:45:21.687Z,25.60
2018-07-28T03:46:53.257Z,27.50
2018-07-28T03:48:24.829Z,25.80
2018-07-28T03:49:56.398Z,26.00
2018-07-28T03:51:27.969Z,27.00
2018-07-28T03:52:59.539Z,26.40
2018-07-28T03:54:31.109Z,28.50
2018-07-28T03:56:02.779Z,29.50
2018-07-28T03:57:34.311Z,30.10
2018-07-28T03:59:05.819Z,31.30
2018-07-28T04:00:37.391Z,34.70
2018-07-28T04:02:08.961Z,34.30
2018-07-28T04:03:40.530Z,33.90
2018-07-28T04:05:12.100Z,36.70
2018-07-28T04:06:43.671Z,35.30
2018-07-28T04:08:15.341Z,28.20
2018-07-28T04:09:46.812Z,34.40
2018-07-28T04:11:18.382Z,34.70
2018-07-28T04:12:49.951Z,34.40
2018-07-28T04:14:21.641Z,33.10
2018-07-28T04:15:53.095Z,38.10
2018-07-28T04:17:25.214Z,38.10
2018-07-28T04:18:56.237Z,42.20
2018-07-28T04:20:27.803Z,37.20
2018-07-28T04:21:59.375Z,35.50
2018-07-28T04:23:30.944Z,35.80
2018-07-28T04:25:02.515Z,40.40
2018-07-28T04:26:34.086Z,34.80
2018-07-28T04:28:05.655Z,35.60
2018-07-28T04:29:37.302Z,38.00
2018-07-28T04:31:08.802Z,33.90
2018-07-28T04:32:40.566Z,39.50
2018-07-28T04:34:11.947Z,42.10
2018-07-28T04:35:43.507Z,41.80
2018-07-28T04:37:15.083Z,41.40
2018-07-28T04:38:46.753Z,39.50
2018-07-28T04:40:18.219Z,40.00
2018-07-28T04:41:49.789Z,39.10
2018-07-28T04:43:21.359Z,38.40
2018-07-28T04:44:52.938Z,40.60
2018-07-28T04:46:24.500Z,40.50
2018-07-28T04:47:56.071Z,41.70
2018-07-28T04:49:27.642Z,43.10
2018-07-28T04:50:59.312Z,40.80
2018-07-28T04:52:30.784Z,41.80
2018-07-28T04:54:02.358Z,41.20
2018-07-28T04:55:33.924Z,40.70
2018-07-28T04:57:05.495Z,40.80
2018-07-28T04:58:37.065Z,40.50
2018-07-28T05:00:08.636Z,42.30
2018-07-28T05:01:40.206Z,39.50
2018-07-28T05:03:11.778Z,41.60
2018-07-28T05:04:43.347Z,40.40
2018-07-28T05:06:14.918Z,37.90
2018-07-28T05:07:46.489Z,38.00
2018-07-28T05:09:18.309Z,39.30
2018-07-28T05:10:49.630Z,36.30
2018-07-28T05:12:21.200Z,34.80
2018-07-28T05:13:52.770Z,35.30
2018-07-28T05:15:24.347Z,34.50
2018-07-28T05:16:55.912Z,30.80
2018-07-28T05:18:27.481Z,31.90
2018-07-28T05:19:59.052Z,31.30
2018-07-28T05:21:30.623Z,32.90
2018-07-28T05:23:02.195Z,31.90
2018-07-28T05:24:33.763Z,31.10
2018-07-28T05:26:05.336Z,31.00
2018-07-28T05:27:37.006Z,32.00
2018-07-28T05:29:08.478Z,33.50
2018-07-28T05:30:40.046Z,30.20
2018-07-28T05:32:11.620Z,28.50
2018-07-28T05:33:43.287Z,28.80
2018-07-28T05:35:14.757Z,28.50
2018-07-28T05:36:46.327Z,28.40
2018-07-28T05:38:17.898Z,27.10
2018-07-28T05:39:49.574Z,25.80
2018-07-28T05:41:21.038Z,28.30
2018-07-28T05:42:52.610Z,26.10
2018-07-28T05:44:24.180Z,25.00
2018-07-28T05:45:55.850Z,24.20
2018-07-28T05:47:27.320Z,26.80
2018-07-28T05:48:58.890Z,25.40
2018-07-28T05:50:30.462Z,26.00
2018-07-28T05:52:02.034Z,26.50
2018-07-28T05:53:33.602Z,25.40
2018-07-28T05:55:05.172Z,25.20
2018-07-28T05:56:36.742Z,24.00
2018-07-28T05:58:08.413Z,24.60
2018-07-28T05:59:39.883Z,25.60
2018-07-28T06:01:11.453Z,24.80
2018-07-28T06:02:43.029Z,24.00
2018-07-28T06:04:14.944Z,23.70
2018-07-28T06:05:46.164Z,24.70
2018-07-28T06:07:17.737Z,23.70
2018-07-28T06:08:49.305Z,23.40
2018-07-28T06:10:20.975Z,24.10
2018-07-28T06:11:52.445Z,23.60
2018-07-28T06:13:24.015Z,23.80
2018-07-28T06:14:55.585Z,23.80
2018-07-28T06:16:27.156Z,23.90
2018-07-28T06:17:58.736Z,23.90
2018-07-28T06:19:30.302Z,24.50
2018-07-28T06:21:01.868Z,23.90
2018-07-28T06:22:33.537Z,24.60
2018-07-28T06:24:05.007Z,24.50
2018-07-28T06:25:36.578Z,24.00
2018-07-28T06:27:08.148Z,23.90
2018-07-28T06:28:39.718Z,24.20
2018-07-28T06:30:11.289Z,24.80
2018-07-28T06:31:42.967Z,24.60
2018-07-28T06:33:14.433Z,23.70
2018-07-28T06:34:46.099Z,23.50
2018-07-28T06:36:17.569Z,23.00
2018-07-28T06:37:49.139Z,23.20
2018-07-28T06:39:20.713Z,22.40
2018-07-28T06:40:52.481Z,23.00
2018-07-28T06:42:23.850Z,21.20
2018-07-28T06:43:55.421Z,22.20
2018-07-28T06:45:26.991Z,22.40
2018-07-28T06:46:58.563Z,20.60
2018-07-28T06:48:30.135Z,22.40
2018-07-28T06:50:01.701Z,21.60
2018-07-28T06:51:33.271Z,21.50
2018-07-28T06:53:04.841Z,23.40
2018-07-28T06:54:36.412Z,23.30
2018-07-28T06:56:07.981Z,22.40
2018-07-28T06:57:39.552Z,21.20
2018-07-28T06:59:11.322Z,23.50
2018-07-28T07:00:42.697Z,22.70
2018-07-28T07:02:14.262Z,24.70
2018-07-28T07:03:45.833Z,24.70
2018-07-28T07:05:17.653Z,25.30
2018-07-28T07:06:48.972Z,24.40
2018-07-28T07:08:20.542Z,23.40
2018-07-28T07:09:52.113Z,24.20
2018-07-28T07:11:23.783Z,24.00
2018-07-28T07:12:55.253Z,23.60
2018-07-28T07:14:26.823Z,23.40
2018-07-28T07:15:58.408Z,22.70
2018-07-28T07:17:30.064Z,23.40
2018-07-28T07:19:01.534Z,25.10
2018-07-28T07:20:33.104Z,24.30
2018-07-28T07:22:04.675Z,25.70
2018-07-28T07:23:36.246Z,27.20
2018-07-28T07:25:07.815Z,29.00
2018-07-28T07:26:39.385Z,28.00
2018-07-28T07:28:10.955Z,27.40
2018-07-28T07:29:42.627Z,28.20
2018-07-28T07:31:14.096Z,27.20
2018-07-28T07:32:45.665Z,27.60
2018-07-28T07:34:17.236Z,27.20
2018-07-28T07:35:49.407Z,25.90
2018-07-28T07:37:20.376Z,27.00
2018-07-28T07:38:51.946Z,25.70
2018-07-28T07:40:23.516Z,23.80
2018-07-28T07:41:55.187Z,24.10
2018-07-28T07:43:26.657Z,24.80
2018-07-28T07:44:58.227Z,23.90
2018-07-28T07:46:29.797Z,24.10
2018-07-28T07:48:01.468Z,23.50
2018-07-28T07:49:32.939Z,23.50
2018-07-28T07:51:04.508Z,23.00
2018-07-28T07:52:36.086Z,24.70
2018-07-28T07:54:07.748Z,24.60
2018-07-28T07:55:39.218Z,21.40
2018-07-28T07:57:10.788Z,26.30
2018-07-28T07:58:42.358Z,26.40
2018-07-28T08:00:14.028Z,26.20
2018-07-28T08:01:45.498Z,26.40
2018-07-28T08:03:17.068Z,26.40
2018-07-28T08:04:48.686Z,26.30
2018-07-28T08:06:20.483Z,25.70
2018-07-28T08:07:51.780Z,24.60
2018-07-28T08:09:23.348Z,25.50
2018-07-28T08:10:54.918Z,25.20
2018-07-28T08:12:26.688Z,24.20
2018-07-28T08:13:58.058Z,25.10
2018-07-28T08:15:29.628Z,25.10
2018-07-28T08:17:01.198Z,24.60
2018-07-28T08:18:32.768Z,26.60
2018-07-28T08:20:04.338Z,26.60
2018-07-28T08:21:35.907Z,27.90
2018-07-28T08:23:07.477Z,26.90
2018-07-28T08:24:39.048Z,29.30
2018-07-28T08:26:10.617Z,31.60
2018-07-28T08:27:42.188Z,28.90
2018-07-28T08:29:13.757Z,30.50
2018-07-28T08:30:45.527Z,31.20
2018-07-28T08:32:16.897Z,31.70
2018-07-28T08:33:48.467Z,29.80
2018-07-28T08:35:20.039Z,31.70
2018-07-28T08:36:51.607Z,31.30
2018-07-28T08:38:23.176Z,29.80
2018-07-28T08:39:54.813Z,31.20
2018-07-28T08:41:26.316Z,31.30
2018-07-28T08:42:57.988Z,30.10
2018-07-28T08:44:29.459Z,31.10
2018-07-28T08:46:01.029Z,31.20
2018-07-28T08:47:32.596Z,30.60
2018-07-28T08:49:04.427Z,30.00
2018-07-28T08:50:35.736Z,28.40
2018-07-28T08:52:07.307Z,27.70
2018-07-28T08:53:38.875Z,28.30
2018-07-28T08:55:10.446Z,26.40
2018-07-28T08:56:42.016Z,28.20
2018-07-28T08:58:13.586Z,26.90
2018-07-28T08:59:45.155Z,25.40
2018-07-28T09:01:16.825Z,25.20
2018-07-28T09:02:48.296Z,24.70
2018-07-28T09:04:19.864Z,25.60
2018-07-28T09:05:51.495Z,24.50
2018-07-28T09:07:23.355Z,24.40
2018-07-28T09:08:54.574Z,23.90
2018-07-28T09:10:26.145Z,26.00
2018-07-28T09:11:57.714Z,23.70
2018-07-28T09:13:29.383Z,22.50
2018-07-28T09:15:00.853Z,22.00
2018-07-28T09:16:32.506Z,21.10
2018-07-28T09:18:04.081Z,22.50
2018-07-28T09:19:35.562Z,20.40
2018-07-28T09:21:07.132Z,20.50
2018-07-28T09:22:38.782Z,19.10
2018-07-28T09:24:10.271Z,18.40
2018-07-28T09:25:41.940Z,18.10
2018-07-28T09:27:13.410Z,17.80
2018-07-28T09:28:44.980Z,17.30
2018-07-28T09:30:16.550Z,18.00
2018-07-28T09:31:48.119Z,17.80
2018-07-28T09:33:19.690Z,17.60
2018-07-28T09:34:51.259Z,18.30
2018-07-28T09:36:22.828Z,15.90
2018-07-28T09:37:54.499Z,18.20
2018-07-28T09:39:25.968Z,17.20
2018-07-28T09:40:57.539Z,18.30
2018-07-28T09:42:29.108Z,16.50
2018-07-28T09:44:00.878Z,17.50
2018-07-28T09:45:32.247Z,16.20
2018-07-28T09:47:03.883Z,17.50
2018-07-28T09:48:35.913Z,17.60
2018-07-28T09:50:06.956Z,17.50
2018-07-28T09:51:38.526Z,17.60
2018-07-28T09:56:13.269Z,16.30
2018-07-28T09:57:44.806Z,17.70
2018-07-28T09:59:16.377Z,15.20
2018-07-28T10:00:48.677Z,17.50
2018-07-28T10:02:20.345Z,16.60
2018-07-28T10:03:51.085Z,16.30
2018-07-28T10:05:22.682Z,17.00
2018-07-28T10:06:54.228Z,16.50
2018-07-28T10:09:57.893Z,15.80
2018-07-28T10:11:28.939Z,16.50
2018-07-28T10:13:00.509Z,17.20
2018-07-28T10:16:03.750Z,16.10
2018-07-28T10:19:06.802Z,15.80
2018-07-28T10:20:38.365Z,16.00
2018-07-28T10:22:10.037Z,15.10
2018-07-28T10:23:42.035Z,16.20
2018-07-28T10:25:13.280Z,18.00
2018-07-28T10:26:44.648Z,16.30
2018-07-28T10:28:16.220Z,16.70
2018-07-28T10:31:19.365Z,17.60
2018-07-28T10:32:50.938Z,16.10
2018-07-28T10:34:22.509Z,16.80
2018-07-28T10:35:54.083Z,17.00
2018-07-28T10:37:25.656Z,17.10
2018-07-28T10:38:57.226Z,16.10
2018-07-28T10:40:28.901Z,15.90
2018-07-28T10:43:32.251Z,16.80
2018-07-28T10:45:03.521Z,17.00
2018-07-28T10:46:35.194Z,15.50
2018-07-28T10:48:07.195Z,16.20
2018-07-28T10:49:38.242Z,15.60
2018-07-28T10:51:10.342Z,16.30
2018-07-28T10:52:41.694Z,15.10
2018-07-28T10:54:12.962Z,14.60
2018-07-28T10:55:44.537Z,15.40
2018-07-28T10:57:16.416Z,15.00
2018-07-28T11:01:50.942Z,15.60
2018-07-28T11:03:22.418Z,15.80
2018-07-28T11:04:53.988Z,15.80
2018-07-28T11:06:25.761Z,15.10
2018-07-28T11:07:57.664Z,15.40
2018-07-28T11:09:28.709Z,15.10
2018-07-28T11:11:00.283Z,15.50
2018-07-28T11:12:31.859Z,16.00
2018-07-28T11:14:03.887Z,15.90
2018-07-28T11:17:06.588Z,14.70
2018-07-28T11:18:38.168Z,15.30
2018-07-28T11:20:10.143Z,14.10
2018-07-28T11:21:41.517Z,14.20
2018-07-28T11:23:12.892Z,14.40
2018-07-28T11:24:44.467Z,13.30
2018-07-28T11:26:16.317Z,13.80
2018-07-28T11:27:47.622Z,14.80
2018-07-28T11:29:19.198Z,14.30
2018-07-28T11:30:50.775Z,14.10
2018-07-28T11:32:22.352Z,14.00
2018-07-28T11:33:53.931Z,12.20
2018-07-28T11:35:25.811Z,12.30
2018-07-28T11:36:57.095Z,13.00
2018-07-28T11:38:28.964Z,12.40
2018-07-28T11:40:00.542Z,12.50
2018-07-28T11:43:03.393Z,11.90
2018-07-28T11:44:35.950Z,12.70
2018-07-28T11:46:06.549Z,12.50
2018-07-28T11:47:38.127Z,12.10
2018-07-28T11:50:41.284Z,12.30
2018-07-28T11:52:12.861Z,11.30
2018-07-28T11:53:44.642Z,11.80
2018-07-28T11:55:16.017Z,13.60
2018-07-28T11:56:47.898Z,13.30
2018-07-28T11:59:51.070Z,12.10
2018-07-28T12:01:22.333Z,11.80
2018-07-28T12:02:53.911Z,10.80
2018-07-28T12:04:26.016Z,11.50
2018-07-28T12:05:57.069Z,11.00
2018-07-28T12:07:29.177Z,11.10
2018-07-28T12:09:00.227Z,10.70
2018-07-28T12:13:34.965Z,9.90
2018-07-28T12:15:07.171Z,10.30
2018-07-28T12:18:09.912Z,10.40
2018-07-28T12:19:41.282Z,11.30
2018-07-28T12:21:13.167Z,11.30
2018-07-28T12:22:44.443Z,10.90
2018-07-28T12:24:16.226Z,10.40
2018-07-28T12:27:19.182Z,10.90
2018-07-28T12:28:50.766Z,10.50
2018-07-28T12:30:22.868Z,9.70
2018-07-28T12:31:53.923Z,9.90
2018-07-28T12:33:25.602Z,9.70
2018-07-28T12:34:57.352Z,9.50
2018-07-28T12:36:28.666Z,10.00
2018-07-28T12:38:00.446Z,9.10
2018-07-28T12:39:32.354Z,9.30
2018-07-28T12:41:03.645Z,8.90
2018-07-28T12:42:34.987Z,9.10
2018-07-28T12:44:06.569Z,9.30
2018-07-28T12:47:09.830Z,9.80
2018-07-28T12:48:41.312Z,9.80
2018-07-28T12:50:12.893Z,9.00
2018-07-28T12:54:47.835Z,8.90
2018-07-28T12:56:19.326Z,10.00
2018-07-28T12:57:50.798Z,9.40
2018-07-28T13:00:53.962Z,9.50
2018-07-28T13:02:25.544Z,9.80
2018-07-28T13:03:57.199Z,8.90
2018-07-28T13:07:00.291Z,9.40
2018-07-28T13:08:32.196Z,9.00
2018-07-28T13:11:35.036Z,9.00
2018-07-28T13:13:06.721Z,9.60
2018-07-28T13:14:38.199Z,10.60
2018-07-28T13:16:09.782Z,9.10
2018-07-28T13:17:41.571Z,10.00
2018-07-28T13:20:44.532Z,9.60
2018-07-28T13:22:16.113Z,10.20
2018-07-28T13:23:48.521Z,10.70
2018-07-28T13:26:50.859Z,9.20
2018-07-28T13:28:22.443Z,8.10
2018-07-28T13:32:57.292Z,10.00
2018-07-28T13:34:28.774Z,10.00
2018-07-28T13:36:00.367Z,10.80
2018-07-28T13:37:31.945Z,11.30
2018-07-28T13:39:04.048Z,10.10
2018-07-28T13:40:35.104Z,11.30
2018-07-28T13:42:06.735Z,10.80
2018-07-28T13:43:38.268Z,10.80
2018-07-28T13:45:10.680Z,10.70
2018-07-28T13:46:41.636Z,9.70
2018-07-28T13:48:13.015Z,10.60
2018-07-28T13:51:16.909Z,10.70
2018-07-28T13:55:50.929Z,11.50
2018-07-28T14:01:57.563Z,10.60
2018-07-28T14:03:28.845Z,10.50
2018-07-28T14:05:00.632Z,10.40
2018-07-28T14:06:32.011Z,11.30
2018-07-28T14:08:04.147Z,11.50
2018-07-28T14:09:35.175Z,11.00
2018-07-28T14:11:07.285Z,11.40
2018-07-28T14:12:38.544Z,11.70
2018-07-28T14:14:09.925Z,12.40
2018-07-28T14:15:42.052Z,12.10
2018-07-28T14:17:13.095Z,12.30
2018-07-28T14:20:16.260Z,12.40
2018-07-28T14:21:47.842Z,11.40
2018-07-28T14:23:19.432Z,10.80
2018-07-28T14:24:51.647Z,11.10
2018-07-28T14:26:22.693Z,11.90
2018-07-28T14:27:54.176Z,13.50
2018-07-28T14:32:29.026Z,11.90
2018-07-28T14:34:00.509Z,12.20
2018-07-28T14:37:03.877Z,11.50
2018-07-28T14:40:06.849Z,12.80
2018-07-28T14:43:10.015Z,11.80
2018-07-28T14:44:41.800Z,11.70
2018-07-28T14:46:13.377Z,10.10
2018-07-28T14:47:44.760Z,10.70
2018-07-28T14:49:16.343Z,11.70
2018-07-28T14:50:48.259Z,10.90
2018-07-28T14:52:19.512Z,11.90
2018-07-28T14:53:51.095Z,11.40
2018-07-28T14:55:22.679Z,12.20
2018-07-28T14:56:54.786Z,11.70
2018-07-28T14:58:26.048Z,10.50
2018-07-28T14:59:57.955Z,10.00
2018-07-28T15:01:29.021Z,10.40
2018-07-28T15:03:00.808Z,9.30
2018-07-28T15:04:32.383Z,10.40
2018-07-28T15:07:35.563Z,10.40
2018-07-28T15:09:06.994Z,10.50
2018-07-28T15:10:38.723Z,9.60
2018-07-28T15:12:10.106Z,9.20
2018-07-28T15:13:41.694Z,9.90
2018-07-28T15:15:13.800Z,9.50
2018-07-28T15:18:16.696Z,8.50
2018-07-28T15:19:48.639Z,8.20
2018-07-28T15:21:19.617Z,8.50
2018-07-28T15:22:51.200Z,7.70
2018-07-28T15:24:23.432Z,8.90
2018-07-28T15:25:54.370Z,8.20
2018-07-28T15:30:29.133Z,7.50
2018-07-28T15:32:00.730Z,7.10
2018-07-28T15:33:32.335Z,7.20
2018-07-28T15:36:35.871Z,7.80
2018-07-28T15:38:07.052Z,8.00
2018-07-28T15:39:38.948Z,8.30
2018-07-28T15:42:41.910Z,8.40
2018-07-28T15:44:13.394Z,8.80
2018-07-28T15:45:46.112Z,7.40
2018-07-28T15:48:48.149Z,7.60
2018-07-28T15:50:19.733Z,7.70
2018-07-28T15:51:51.319Z,6.90
2018-07-28T15:53:22.903Z,7.10
2018-07-28T15:54:54.489Z,7.20
2018-07-28T15:56:26.376Z,7.90
2018-07-28T15:57:57.658Z,7.30
2018-07-28T15:59:29.445Z,7.30
2018-07-28T16:01:00.928Z,6.80
2018-07-28T16:02:32.414Z,7.00
2018-07-28T16:04:03.999Z,6.40
2018-07-28T16:05:36.108Z,6.30
2018-07-28T16:07:07.472Z,6.30
2018-07-28T16:08:38.758Z,5.20
2018-07-28T16:10:10.342Z,4.80
2018-07-28T16:13:13.510Z,4.80
2018-07-28T16:14:45.095Z,4.50
2018-07-28T16:16:16.682Z,4.90
2018-07-28T16:20:51.993Z,6.10
2018-07-28T16:22:23.554Z,5.10
2018-07-28T16:23:54.614Z,6.00
2018-07-28T16:25:26.193Z,6.40
2018-07-28T16:26:57.779Z,6.00
2018-07-28T16:30:00.950Z,6.20
2018-07-28T16:34:35.705Z,6.20
2018-07-28T16:36:07.291Z,6.00
2018-07-28T16:37:38.876Z,6.20
2018-07-28T16:39:10.984Z,6.50
2018-07-28T16:40:42.762Z,6.60
2018-07-28T16:42:14.190Z,6.00
2018-07-28T16:43:45.418Z,6.10
2018-07-28T16:45:16.804Z,6.20
2018-07-28T16:46:48.389Z,5.80
2018-07-28T16:48:20.275Z,5.90
2018-07-28T16:49:51.861Z,6.10
2018-07-28T16:51:23.175Z,6.40
2018-07-28T16:52:55.456Z,6.30
2018-07-28T16:54:26.318Z,5.70
2018-07-28T16:57:29.483Z,6.20
2018-07-28T16:59:01.183Z,6.20
2018-07-28T17:00:32.653Z,5.80
2018-07-28T17:02:04.238Z,6.40
2018-07-28T17:03:36.025Z,6.10
2018-07-28T17:05:07.410Z,5.70
2018-07-28T17:06:38.994Z,6.30
2018-07-28T17:08:11.099Z,6.80
2018-07-28T17:09:42.160Z,6.80
2018-07-28T17:11:13.747Z,5.70
2018-07-28T17:12:45.331Z,6.30
2018-07-28T17:14:16.917Z,6.40
2018-07-28T17:15:48.503Z,6.50
2018-07-28T17:17:20.187Z,6.30
2018-07-28T17:18:52.196Z,6.90
2018-07-28T17:21:54.842Z,6.70
2018-07-28T17:24:58.014Z,7.10
2018-07-28T17:26:29.901Z,7.70
2018-07-28T17:28:01.181Z,7.50
2018-07-28T17:29:33.272Z,7.30
2018-07-28T17:31:04.487Z,7.60
2018-07-28T17:32:36.239Z,7.90
2018-07-28T17:38:42.876Z,8.30
2018-07-28T17:43:17.029Z,9.30
2018-07-28T17:44:48.612Z,9.20
2018-07-28T17:46:20.399Z,8.90
2018-07-28T17:47:51.986Z,8.50
2018-07-28T17:50:54.950Z,8.00
2018-07-28T17:52:26.534Z,8.50
2018-07-28T17:53:59.247Z,9.20
2018-07-28T17:55:29.707Z,9.60
2018-07-28T17:57:01.387Z,9.90
2018-07-28T17:58:33.374Z,9.00
2018-07-28T18:00:04.531Z,8.70
2018-07-28T18:01:36.041Z,8.70
2018-07-28T18:03:07.926Z,8.70
2018-07-28T18:06:10.991Z,9.30
2018-07-28T18:09:13.956Z,8.80
2018-07-28T18:10:45.844Z,8.70
2018-07-28T18:12:17.125Z,8.00
2018-07-28T18:13:48.710Z,8.70
2018-07-28T18:15:20.393Z,7.90
2018-07-28T18:18:23.462Z,7.80
2018-07-28T18:19:55.975Z,8.60
2018-07-28T18:21:26.881Z,9.60
2018-07-28T18:22:58.216Z,8.40
2018-07-28T18:26:01.387Z,8.80
2018-07-28T18:27:32.967Z,9.00
2018-07-28T18:29:04.552Z,9.30
2018-07-28T18:30:36.136Z,9.00
2018-07-28T18:32:07.923Z,9.00
2018-07-28T18:33:39.807Z,8.70
2018-07-28T18:35:10.885Z,9.60
2018-07-28T18:36:42.991Z,9.40
2018-07-28T18:38:14.052Z,9.00
2018-07-28T18:39:45.667Z,8.90
2018-07-28T18:41:17.420Z,8.60
2018-07-28T18:42:48.803Z,8.40
2018-07-28T18:44:20.587Z,8.10
2018-07-28T18:45:51.969Z,8.00
2018-07-28T18:47:23.553Z,7.80
2018-07-28T18:48:55.219Z,8.10
2018-07-28T18:50:26.719Z,7.40
2018-07-28T18:51:58.610Z,7.60
2018-07-28T18:53:29.886Z,7.60
2018-07-28T18:55:01.489Z,7.80
2018-07-28T18:56:33.056Z,8.50
2018-07-28T18:58:04.737Z,9.70
2018-07-28T18:59:36.220Z,10.10
2018-07-28T19:01:07.803Z,8.50
2018-07-28T19:02:39.386Z,9.00
2018-07-28T19:04:11.271Z,9.00
2018-07-28T19:05:42.856Z,9.00
2018-07-28T19:07:14.135Z,9.10
2018-07-28T19:08:45.920Z,9.70
2018-07-28T19:10:17.402Z,10.20
2018-07-28T19:11:49.229Z,9.90
2018-07-28T19:16:23.634Z,9.50
2018-07-28T19:17:55.215Z,9.70
2018-07-28T19:20:58.682Z,9.50
2018-07-28T19:22:30.166Z,9.30
2018-07-28T19:24:01.848Z,9.90
2018-07-28T19:25:33.650Z,9.70
2018-07-28T19:27:04.709Z,9.60
2018-07-28T19:30:07.973Z,10.20
2018-07-28T19:31:39.455Z,9.90
2018-07-28T19:33:11.037Z,9.20
2018-07-28T19:34:42.617Z,9.90
2018-07-28T19:36:14.300Z,9.50
2018-07-28T19:39:17.362Z,9.70
2018-07-28T19:40:48.945Z,10.00
2018-07-28T19:42:20.626Z,9.20
2018-07-28T19:45:23.689Z,10.70
2018-07-28T19:48:26.951Z,9.50
2018-07-28T19:49:58.432Z,9.40
2018-07-28T19:51:30.015Z,10.30
2018-07-28T19:53:01.595Z,10.40
2018-07-28T19:54:33.175Z,9.80
2018-07-28T19:56:04.759Z,10.20
2018-07-28T19:59:07.917Z,10.70
2018-07-28T20:00:39.600Z,10.60
2018-07-28T20:02:11.077Z,9.80
2018-07-28T20:03:42.659Z,10.30
2018-07-28T20:05:14.239Z,10.30
2018-07-28T20:08:17.803Z,9.20
2018-07-28T20:09:48.979Z,9.80
2018-07-28T20:11:20.559Z,11.30
2018-07-28T20:14:23.922Z,11.80
2018-07-28T20:15:55.298Z,10.20
2018-07-28T20:17:26.877Z,11.00
2018-07-28T20:18:58.457Z,10.20
2018-07-28T20:20:30.343Z,10.80
2018-07-28T20:23:33.195Z,11.10
2018-07-28T20:25:04.774Z,10.40
2018-07-28T20:26:36.463Z,10.80
2018-07-28T20:28:07.935Z,11.60
2018-07-28T20:31:11.090Z,11.10
2018-07-28T20:32:42.773Z,12.20
2018-07-28T20:34:14.246Z,12.80
2018-07-28T20:35:46.348Z,11.30
2018-07-28T20:37:17.404Z,13.40
2018-07-28T20:38:49.082Z,13.40
2018-07-28T20:40:20.561Z,12.90
2018-07-28T20:41:52.179Z,13.40
2018-07-28T20:43:23.716Z,12.30
2018-07-28T20:44:55.393Z,12.30
2018-07-28T20:46:26.870Z,12.00
2018-07-28T20:47:58.450Z,12.20
2018-07-28T20:49:30.025Z,11.00
2018-07-28T20:51:01.640Z,11.70
2018-07-28T20:52:33.179Z,11.80
2018-07-28T20:54:04.756Z,12.20
2018-07-28T20:55:36.332Z,12.20
2018-07-28T20:57:07.923Z,12.70
2018-07-28T20:58:39.486Z,11.80
2018-07-28T21:00:11.070Z,12.50
2018-07-28T21:01:42.638Z,13.40
2018-07-28T21:03:14.415Z,12.00
2018-07-28T21:04:45.790Z,13.00
2018-07-28T21:06:17.367Z,12.10
2018-07-28T21:07:48.942Z,12.20
2018-07-28T21:09:20.569Z,12.30
2018-07-28T21:10:52.093Z,12.30
2018-07-28T21:12:23.668Z,13.40
2018-07-28T21:13:55.244Z,12.10
2018-07-28T21:15:26.819Z,12.10
2018-07-28T21:16:58.395Z,12.60
2018-07-28T21:18:29.975Z,12.70
2018-07-28T21:20:01.548Z,13.10
2018-07-28T21:21:33.222Z,12.30
2018-07-28T21:23:04.695Z,12.80
2018-07-28T21:24:36.271Z,13.00
2018-07-28T21:26:07.844Z,12.20
2018-07-28T21:27:39.423Z,12.40
2018-07-28T21:29:11.167Z,12.50
2018-07-28T21:30:42.569Z,15.20
2018-07-28T21:32:14.143Z,16.30
2018-07-28T21:33:45.718Z,15.20
2018-07-28T21:35:17.293Z,15.60
2018-07-28T21:36:48.867Z,14.70
2018-07-28T21:38:20.545Z,15.70
2018-07-28T21:39:52.917Z,14.90
2018-07-28T21:41:23.590Z,14.30
2018-07-28T21:42:55.164Z,13.80
2018-07-28T21:44:26.739Z,12.60
2018-07-28T21:45:58.425Z,14.50